This is the latest recevied weather packets stored in our database for station/object HK4D-15. If no packets are shown the sender has not sent any weather packets the latest 10 day(s).
| Time | Temp. | Humidity | Pressure | Rain* | Wind** | Luminosity | Snow |
|---|---|---|---|---|---|---|---|
| 1778003506 | 22.22° C | 57% | 1012 hPa | 0 mm | - | - | - |
| 1778002845 | 22.22° C | 57% | 1012 hPa | 0 mm | - | - | - |
| 1778002184 | 22.22° C | 57% | 1013 hPa | 0 mm | - | - | - |
| 1778001523 | 22.22° C | 58% | 1013 hPa | 0 mm | - | - | - |
| 1778000862 | 21.67° C | 59% | 1013 hPa | 0 mm | - | - | - |
| 1778000201 | 21.11° C | 61% | 1013 hPa | 0 mm | - | - | - |
| 1777999540 | 21.11° C | 62% | 1013 hPa | 0 mm | - | - | - |
| 1777998880 | 21.11° C | 63% | 1013 hPa | 0 mm | - | - | - |
| 1777998220 | 20.56° C | 64% | 1014 hPa | 0 mm | - | - | - |
| 1777997556 | 20° C | 67% | 1014 hPa | 0 mm | - | - | - |
| 1777996893 | 19.44° C | 72% | 1014 hPa | 0 mm | - | - | - |
| 1777996232 | 19.44° C | 72% | 1014 hPa | 0 mm | - | - | - |
| 1777995571 | 19.44° C | 72% | 1014 hPa | 0 mm | - | - | - |
| 1777994911 | 19.44° C | 72% | 1015 hPa | 0 mm | - | - | - |
| 1777994250 | 19.44° C | 72% | 1015 hPa | 0 mm | - | - | - |
| 1777993590 | 19.44° C | 72% | 1015 hPa | 0 mm | - | - | - |
| 1777992929 | 18.89° C | 72% | 1015 hPa | 0 mm | - | - | - |
| 1777992268 | 18.89° C | 72% | 1015 hPa | 0 mm | - | - | - |
| 1777991608 | 18.33° C | 76% | 1015 hPa | 0 mm | - | - | - |
| 1777990947 | 17.78° C | 79% | 1016 hPa | 0 mm | - | - | - |
| 1777989625 | 16.11° C | 93% | 1016 hPa | 0 mm | - | - | - |
| 1777988963 | 16.11° C | 93% | 1016 hPa | 0 mm | - | - | - |
| 1777988300 | 15° C | 94% | 1016 hPa | 0 mm | - | - | - |
| 1777987639 | 15° C | 94% | 1016 hPa | 0 mm | - | - | - |
| 1777986979 | 15° C | 94% | 1016 hPa | 0 mm | - | - | - |
* Rain latest hour (hover to see other rain measurements)
** Current wind speed in m/s (hover to see current wind gust speed)